sensor_id;sensor_type;location;lat;lon;timestamp;P1;durP1;ratioP1;P2;durP2;ratioP2
2011;SDS011;1009;51.436;6.972;2023-04-24T00:01:01;0.97;;;0.80;;
2011;SDS011;1009;51.436;6.972;2023-04-24T00:03:28;0.90;;;0.90;;
2011;SDS011;1009;51.436;6.972;2023-04-24T00:05:55;1.00;;;0.80;;
2011;SDS011;1009;51.436;6.972;2023-04-24T00:08:23;1.87;;;1.03;;
2011;SDS011;1009;51.436;6.972;2023-04-24T00:10:50;1.80;;;1.00;;
2011;SDS011;1009;51.436;6.972;2023-04-24T00:13:17;1.67;;;0.97;;
2011;SDS011;1009;51.436;6.972;2023-04-24T00:15:44;3.00;;;1.20;;
2011;SDS011;1009;51.436;6.972;2023-04-24T00:18:11;2.90;;;1.20;;
2011;SDS011;1009;51.436;6.972;2023-04-24T00:20:37;1.20;;;1.00;;
2011;SDS011;1009;51.436;6.972;2023-04-24T00:23:04;1.17;;;1.07;;
2011;SDS011;1009;51.436;6.972;2023-04-24T00:25:32;1.13;;;1.00;;
2011;SDS011;1009;51.436;6.972;2023-04-24T00:27:59;1.90;;;1.20;;
2011;SDS011;1009;51.436;6.972;2023-04-24T00:30:26;2.20;;;1.20;;
2011;SDS011;1009;51.436;6.972;2023-04-24T00:32:52;3.07;;;1.60;;
2011;SDS011;1009;51.436;6.972;2023-04-24T00:35:19;1.13;;;1.03;;
2011;SDS011;1009;51.436;6.972;2023-04-24T00:37:46;6.27;;;1.70;;
2011;SDS011;1009;51.436;6.972;2023-04-24T00:40:12;2.83;;;1.40;;
2011;SDS011;1009;51.436;6.972;2023-04-24T00:42:44;1.67;;;1.57;;
2011;SDS011;1009;51.436;6.972;2023-04-24T00:45:14;2.20;;;1.30;;
2011;SDS011;1009;51.436;6.972;2023-04-24T00:47:41;2.00;;;1.87;;
2011;SDS011;1009;51.436;6.972;2023-04-24T00:50:08;3.30;;;1.63;;
2011;SDS011;1009;51.436;6.972;2023-04-24T00:52:36;2.70;;;1.57;;
2011;SDS011;1009;51.436;6.972;2023-04-24T00:55:05;2.90;;;1.60;;
2011;SDS011;1009;51.436;6.972;2023-04-24T00:57:33;3.03;;;1.70;;
2011;SDS011;1009;51.436;6.972;2023-04-24T01:00:02;2.30;;;1.83;;
2011;SDS011;1009;51.436;6.972;2023-04-24T01:02:37;2.10;;;2.00;;
2011;SDS011;1009;51.436;6.972;2023-04-24T01:05:09;2.83;;;1.80;;
2011;SDS011;1009;51.436;6.972;2023-04-24T01:07:36;2.80;;;1.93;;
2011;SDS011;1009;51.436;6.972;2023-04-24T01:10:04;1.60;;;1.47;;
2011;SDS011;1009;51.436;6.972;2023-04-24T01:12:32;3.03;;;2.17;;
2011;SDS011;1009;51.436;6.972;2023-04-24T01:14:59;4.10;;;2.50;;
2011;SDS011;1009;51.436;6.972;2023-04-24T01:17:28;3.13;;;2.50;;
2011;SDS011;1009;51.436;6.972;2023-04-24T01:19:56;2.50;;;2.30;;
2011;SDS011;1009;51.436;6.972;2023-04-24T01:22:24;3.10;;;2.80;;
2011;SDS011;1009;51.436;6.972;2023-04-24T01:24:51;5.20;;;3.30;;
2011;SDS011;1009;51.436;6.972;2023-04-24T01:27:19;4.53;;;3.10;;
2011;SDS011;1009;51.436;6.972;2023-04-24T01:29:46;4.10;;;2.83;;
2011;SDS011;1009;51.436;6.972;2023-04-24T01:32:14;4.00;;;3.27;;
2011;SDS011;1009;51.436;6.972;2023-04-24T01:34:41;4.33;;;2.97;;
2011;SDS011;1009;51.436;6.972;2023-04-24T01:37:08;3.00;;;2.70;;
2011;SDS011;1009;51.436;6.972;2023-04-24T01:39:37;5.13;;;4.20;;
2011;SDS011;1009;51.436;6.972;2023-04-24T01:42:04;5.23;;;4.07;;
2011;SDS011;1009;51.436;6.972;2023-04-24T01:44:31;7.27;;;5.00;;
2011;SDS011;1009;51.436;6.972;2023-04-24T01:47:02;5.40;;;4.67;;
2011;SDS011;1009;51.436;6.972;2023-04-24T01:49:28;5.23;;;4.63;;
2011;SDS011;1009;51.436;6.972;2023-04-24T01:51:55;7.10;;;5.17;;
2011;SDS011;1009;51.436;6.972;2023-04-24T01:54:22;4.47;;;4.07;;
2011;SDS011;1009;51.436;6.972;2023-04-24T01:56:50;5.50;;;4.90;;
2011;SDS011;1009;51.436;6.972;2023-04-24T01:59:17;5.80;;;5.30;;
2011;SDS011;1009;51.436;6.972;2023-04-24T02:01:45;5.50;;;4.30;;
2011;SDS011;1009;51.436;6.972;2023-04-24T02:04:11;5.97;;;5.10;;
2011;SDS011;1009;51.436;6.972;2023-04-24T02:06:41;5.97;;;5.37;;
2011;SDS011;1009;51.436;6.972;2023-04-24T02:09:08;9.00;;;6.60;;
2011;SDS011;1009;51.436;6.972;2023-04-24T02:11:35;7.80;;;6.37;;
2011;SDS011;1009;51.436;6.972;2023-04-24T02:14:03;8.30;;;6.37;;
2011;SDS011;1009;51.436;6.972;2023-04-24T02:16:30;8.70;;;7.37;;
2011;SDS011;1009;51.436;6.972;2023-04-24T02:18:58;11.10;;;7.27;;
2011;SDS011;1009;51.436;6.972;2023-04-24T02:21:25;9.13;;;8.17;;
2011;SDS011;1009;51.436;6.972;2023-04-24T02:23:52;10.77;;;8.73;;
2011;SDS011;1009;51.436;6.972;2023-04-24T02:26:19;12.80;;;9.00;;
2011;SDS011;1009;51.436;6.972;2023-04-24T02:28:46;11.23;;;8.90;;
2011;SDS011;1009;51.436;6.972;2023-04-24T02:31:14;10.33;;;9.20;;
2011;SDS011;1009;51.436;6.972;2023-04-24T02:33:40;11.07;;;9.00;;
2011;SDS011;1009;51.436;6.972;2023-04-24T02:36:07;12.93;;;9.00;;
2011;SDS011;1009;51.436;6.972;2023-04-24T02:38:34;10.70;;;9.13;;
2011;SDS011;1009;51.436;6.972;2023-04-24T02:41:01;10.97;;;9.80;;
2011;SDS011;1009;51.436;6.972;2023-04-24T02:43:31;11.93;;;10.43;;
2011;SDS011;1009;51.436;6.972;2023-04-24T02:45:57;13.87;;;11.00;;
2011;SDS011;1009;51.436;6.972;2023-04-24T02:48:25;17.43;;;10.43;;
2011;SDS011;1009;51.436;6.972;2023-04-24T02:50:52;12.53;;;11.00;;
2011;SDS011;1009;51.436;6.972;2023-04-24T02:53:19;15.13;;;11.80;;
2011;SDS011;1009;51.436;6.972;2023-04-24T02:55:46;17.77;;;11.47;;
2011;SDS011;1009;51.436;6.972;2023-04-24T02:58:13;13.50;;;11.00;;
2011;SDS011;1009;51.436;6.972;2023-04-24T03:00:44;13.97;;;11.63;;
2011;SDS011;1009;51.436;6.972;2023-04-24T03:03:11;17.40;;;11.70;;
2011;SDS011;1009;51.436;6.972;2023-04-24T03:05:39;16.60;;;12.70;;
2011;SDS011;1009;51.436;6.972;2023-04-24T03:08:06;20.37;;;13.40;;
2011;SDS011;1009;51.436;6.972;2023-04-24T03:10:32;17.23;;;13.20;;
2011;SDS011;1009;51.436;6.972;2023-04-24T03:13:02;15.70;;;12.33;;
2011;SDS011;1009;51.436;6.972;2023-04-24T03:15:35;14.57;;;13.00;;
2011;SDS011;1009;51.436;6.972;2023-04-24T03:18:01;16.53;;;12.53;;
2011;SDS011;1009;51.436;6.972;2023-04-24T03:20:31;16.63;;;12.87;;
2011;SDS011;1009;51.436;6.972;2023-04-24T03:23:05;21.50;;;14.20;;
2011;SDS011;1009;51.436;6.972;2023-04-24T03:25:32;18.00;;;14.23;;
2011;SDS011;1009;51.436;6.972;2023-04-24T03:27:58;15.77;;;13.00;;
2011;SDS011;1009;51.436;6.972;2023-04-24T03:30:25;19.00;;;13.53;;
2011;SDS011;1009;51.436;6.972;2023-04-24T03:32:52;16.80;;;13.23;;
2011;SDS011;1009;51.436;6.972;2023-04-24T03:35:18;16.70;;;13.97;;
2011;SDS011;1009;51.436;6.972;2023-04-24T03:37:46;14.80;;;12.80;;
2011;SDS011;1009;51.436;6.972;2023-04-24T03:40:14;23.33;;;13.90;;
2011;SDS011;1009;51.436;6.972;2023-04-24T03:42:41;19.57;;;13.47;;
2011;SDS011;1009;51.436;6.972;2023-04-24T03:45:08;17.13;;;13.57;;
2011;SDS011;1009;51.436;6.972;2023-04-24T03:47:35;16.23;;;13.93;;
2011;SDS011;1009;51.436;6.972;2023-04-24T03:50:02;21.93;;;15.07;;
2011;SDS011;1009;51.436;6.972;2023-04-24T03:52:29;18.33;;;14.13;;
2011;SDS011;1009;51.436;6.972;2023-04-24T03:54:56;19.90;;;14.60;;
2011;SDS011;1009;51.436;6.972;2023-04-24T03:57:24;18.83;;;14.20;;
2011;SDS011;1009;51.436;6.972;2023-04-24T03:59:51;16.63;;;12.77;;
2011;SDS011;1009;51.436;6.972;2023-04-24T04:02:18;15.90;;;13.07;;
2011;SDS011;1009;51.436;6.972;2023-04-24T04:04:45;15.20;;;13.13;;
2011;SDS011;1009;51.436;6.972;2023-04-24T04:07:11;16.53;;;13.40;;
2011;SDS011;1009;51.436;6.972;2023-04-24T04:09:38;14.73;;;13.20;;
2011;SDS011;1009;51.436;6.972;2023-04-24T04:12:05;21.87;;;14.70;;
2011;SDS011;1009;51.436;6.972;2023-04-24T04:14:33;17.53;;;13.57;;
2011;SDS011;1009;51.436;6.972;2023-04-24T04:17:00;17.13;;;12.97;;
2011;SDS011;1009;51.436;6.972;2023-04-24T04:19:26;17.70;;;13.20;;
2011;SDS011;1009;51.436;6.972;2023-04-24T04:21:53;14.30;;;12.43;;
2011;SDS011;1009;51.436;6.972;2023-04-24T04:24:21;16.57;;;12.43;;
2011;SDS011;1009;51.436;6.972;2023-04-24T04:26:49;17.90;;;13.80;;
2011;SDS011;1009;51.436;6.972;2023-04-24T04:29:16;16.30;;;13.63;;
2011;SDS011;1009;51.436;6.972;2023-04-24T04:31:44;15.57;;;12.37;;
2011;SDS011;1009;51.436;6.972;2023-04-24T04:34:11;17.97;;;12.87;;
2011;SDS011;1009;51.436;6.972;2023-04-24T04:36:39;14.03;;;12.57;;
2011;SDS011;1009;51.436;6.972;2023-04-24T04:39:06;17.17;;;13.10;;
2011;SDS011;1009;51.436;6.972;2023-04-24T04:41:33;14.80;;;12.40;;
2011;SDS011;1009;51.436;6.972;2023-04-24T04:44:00;15.60;;;11.87;;
2011;SDS011;1009;51.436;6.972;2023-04-24T04:46:29;18.70;;;11.50;;
2011;SDS011;1009;51.436;6.972;2023-04-24T04:48:58;19.23;;;12.50;;
2011;SDS011;1009;51.436;6.972;2023-04-24T04:51:25;14.23;;;12.00;;
2011;SDS011;1009;51.436;6.972;2023-04-24T04:53:52;13.93;;;12.43;;
2011;SDS011;1009;51.436;6.972;2023-04-24T04:56:19;15.53;;;13.90;;
2011;SDS011;1009;51.436;6.972;2023-04-24T04:58:45;15.90;;;12.50;;
2011;SDS011;1009;51.436;6.972;2023-04-24T05:01:12;16.70;;;13.30;;
2011;SDS011;1009;51.436;6.972;2023-04-24T05:03:39;16.63;;;12.40;;
2011;SDS011;1009;51.436;6.972;2023-04-24T05:06:07;15.63;;;11.50;;
2011;SDS011;1009;51.436;6.972;2023-04-24T05:08:34;13.40;;;11.73;;
2011;SDS011;1009;51.436;6.972;2023-04-24T05:11:01;15.60;;;11.27;;
2011;SDS011;1009;51.436;6.972;2023-04-24T05:13:28;18.73;;;11.30;;
2011;SDS011;1009;51.436;6.972;2023-04-24T05:15:54;15.40;;;12.50;;
2011;SDS011;1009;51.436;6.972;2023-04-24T05:18:21;13.10;;;11.70;;
2011;SDS011;1009;51.436;6.972;2023-04-24T05:20:48;13.10;;;11.13;;
2011;SDS011;1009;51.436;6.972;2023-04-24T05:23:16;13.63;;;11.70;;
2011;SDS011;1009;51.436;6.972;2023-04-24T05:25:42;12.10;;;10.73;;
2011;SDS011;1009;51.436;6.972;2023-04-24T05:28:09;14.40;;;11.43;;
2011;SDS011;1009;51.436;6.972;2023-04-24T05:30:36;14.90;;;12.30;;
2011;SDS011;1009;51.436;6.972;2023-04-24T05:33:03;15.30;;;13.50;;
2011;SDS011;1009;51.436;6.972;2023-04-24T05:35:30;17.37;;;14.00;;
2011;SDS011;1009;51.436;6.972;2023-04-24T05:37:56;17.70;;;15.20;;
2011;SDS011;1009;51.436;6.972;2023-04-24T05:40:24;16.00;;;14.30;;
2011;SDS011;1009;51.436;6.972;2023-04-24T05:42:51;15.60;;;14.10;;
2011;SDS011;1009;51.436;6.972;2023-04-24T05:45:18;16.83;;;13.97;;
2011;SDS011;1009;51.436;6.972;2023-04-24T05:47:44;16.40;;;14.13;;
2011;SDS011;1009;51.436;6.972;2023-04-24T05:50:12;16.77;;;14.97;;
2011;SDS011;1009;51.436;6.972;2023-04-24T05:52:38;17.40;;;14.23;;
2011;SDS011;1009;51.436;6.972;2023-04-24T05:55:05;19.17;;;14.90;;
2011;SDS011;1009;51.436;6.972;2023-04-24T05:57:34;19.43;;;15.70;;
2011;SDS011;1009;51.436;6.972;2023-04-24T06:00:00;18.73;;;14.30;;
2011;SDS011;1009;51.436;6.972;2023-04-24T06:02:27;19.83;;;15.53;;
2011;SDS011;1009;51.436;6.972;2023-04-24T06:04:57;16.30;;;14.60;;
2011;SDS011;1009;51.436;6.972;2023-04-24T06:07:24;14.63;;;13.23;;
2011;SDS011;1009;51.436;6.972;2023-04-24T06:09:51;14.40;;;12.90;;
2011;SDS011;1009;51.436;6.972;2023-04-24T06:12:18;14.73;;;13.20;;
2011;SDS011;1009;51.436;6.972;2023-04-24T06:14:46;15.87;;;13.03;;
2011;SDS011;1009;51.436;6.972;2023-04-24T06:17:15;14.53;;;13.03;;
2011;SDS011;1009;51.436;6.972;2023-04-24T06:19:41;17.17;;;12.23;;
2011;SDS011;1009;51.436;6.972;2023-04-24T06:22:08;12.10;;;10.90;;
2011;SDS011;1009;51.436;6.972;2023-04-24T06:24:35;13.27;;;11.67;;
2011;SDS011;1009;51.436;6.972;2023-04-24T06:27:02;14.87;;;13.23;;
2011;SDS011;1009;51.436;6.972;2023-04-24T06:29:29;14.73;;;12.77;;
2011;SDS011;1009;51.436;6.972;2023-04-24T06:31:57;14.90;;;12.10;;
2011;SDS011;1009;51.436;6.972;2023-04-24T06:34:24;12.20;;;10.90;;
2011;SDS011;1009;51.436;6.972;2023-04-24T06:36:51;12.40;;;10.90;;
2011;SDS011;1009;51.436;6.972;2023-04-24T06:39:17;15.90;;;12.17;;
2011;SDS011;1009;51.436;6.972;2023-04-24T06:41:44;15.27;;;11.13;;
2011;SDS011;1009;51.436;6.972;2023-04-24T06:44:11;12.50;;;11.20;;
2011;SDS011;1009;51.436;6.972;2023-04-24T06:46:39;14.47;;;12.07;;
2011;SDS011;1009;51.436;6.972;2023-04-24T06:49:07;14.67;;;13.07;;
2011;SDS011;1009;51.436;6.972;2023-04-24T06:51:34;16.00;;;11.67;;
2011;SDS011;1009;51.436;6.972;2023-04-24T06:54:01;12.43;;;11.07;;
2011;SDS011;1009;51.436;6.972;2023-04-24T06:56:28;16.00;;;12.00;;
2011;SDS011;1009;51.436;6.972;2023-04-24T06:58:55;13.80;;;11.03;;
2011;SDS011;1009;51.436;6.972;2023-04-24T07:01:21;13.80;;;11.83;;
2011;SDS011;1009;51.436;6.972;2023-04-24T07:03:48;12.80;;;11.40;;
2011;SDS011;1009;51.436;6.972;2023-04-24T07:06:16;12.00;;;10.67;;
2011;SDS011;1009;51.436;6.972;2023-04-24T07:08:46;13.63;;;11.50;;
2011;SDS011;1009;51.436;6.972;2023-04-24T07:11:13;13.33;;;11.03;;
2011;SDS011;1009;51.436;6.972;2023-04-24T07:13:39;9.33;;;8.43;;
2011;SDS011;1009;51.436;6.972;2023-04-24T07:16:06;9.57;;;8.40;;
2011;SDS011;1009;51.436;6.972;2023-04-24T07:18:33;8.67;;;7.77;;
2011;SDS011;1009;51.436;6.972;2023-04-24T07:21:01;8.60;;;7.60;;
2011;SDS011;1009;51.436;6.972;2023-04-24T07:23:29;7.20;;;6.47;;
2011;SDS011;1009;51.436;6.972;2023-04-24T07:25:56;8.83;;;7.20;;
2011;SDS011;1009;51.436;6.972;2023-04-24T07:28:23;9.00;;;7.03;;
2011;SDS011;1009;51.436;6.972;2023-04-24T07:30:50;6.40;;;5.60;;
2011;SDS011;1009;51.436;6.972;2023-04-24T07:33:19;6.37;;;5.50;;
2011;SDS011;1009;51.436;6.972;2023-04-24T07:35:45;6.93;;;6.07;;
2011;SDS011;1009;51.436;6.972;2023-04-24T07:38:12;8.77;;;4.93;;
2011;SDS011;1009;51.436;6.972;2023-04-24T07:40:40;5.67;;;4.73;;
2011;SDS011;1009;51.436;6.972;2023-04-24T07:43:07;4.70;;;4.27;;
2011;SDS011;1009;51.436;6.972;2023-04-24T07:45:34;3.90;;;3.60;;
2011;SDS011;1009;51.436;6.972;2023-04-24T07:48:02;3.93;;;3.60;;
2011;SDS011;1009;51.436;6.972;2023-04-24T07:50:29;3.83;;;2.87;;
2011;SDS011;1009;51.436;6.972;2023-04-24T07:52:56;2.20;;;2.00;;
2011;SDS011;1009;51.436;6.972;2023-04-24T07:55:23;2.00;;;1.30;;
2011;SDS011;1009;51.436;6.972;2023-04-24T07:57:51;2.03;;;1.27;;
2011;SDS011;1009;51.436;6.972;2023-04-24T08:00:18;1.90;;;1.30;;
2011;SDS011;1009;51.436;6.972;2023-04-24T08:02:45;1.10;;;1.00;;
2011;SDS011;1009;51.436;6.972;2023-04-24T08:05:12;2.20;;;0.70;;
2011;SDS011;1009;51.436;6.972;2023-04-24T08:07:39;1.00;;;0.90;;
2011;SDS011;1009;51.436;6.972;2023-04-24T08:10:07;2.00;;;1.10;;
2011;SDS011;1009;51.436;6.972;2023-04-24T08:12:35;1.50;;;1.40;;
2011;SDS011;1009;51.436;6.972;2023-04-24T08:15:04;1.30;;;1.10;;
2011;SDS011;1009;51.436;6.972;2023-04-24T08:17:32;1.50;;;1.37;;
2011;SDS011;1009;51.436;6.972;2023-04-24T08:19:59;2.40;;;1.40;;
2011;SDS011;1009;51.436;6.972;2023-04-24T08:22:27;2.57;;;1.30;;
2011;SDS011;1009;51.436;6.972;2023-04-24T08:24:54;1.50;;;1.40;;
2011;SDS011;1009;51.436;6.972;2023-04-24T08:27:21;3.00;;;1.30;;
2011;SDS011;1009;51.436;6.972;2023-04-24T08:29:49;1.60;;;1.27;;
2011;SDS011;1009;51.436;6.972;2023-04-24T08:32:17;2.87;;;1.33;;
2011;SDS011;1009;51.436;6.972;2023-04-24T08:34:44;1.73;;;1.47;;
2011;SDS011;1009;51.436;6.972;2023-04-24T08:37:10;2.30;;;1.47;;
2011;SDS011;1009;51.436;6.972;2023-04-24T08:39:37;2.80;;;2.13;;
2011;SDS011;1009;51.436;6.972;2023-04-24T08:42:04;3.90;;;2.70;;
2011;SDS011;1009;51.436;6.972;2023-04-24T08:44:33;3.80;;;3.40;;
2011;SDS011;1009;51.436;6.972;2023-04-24T08:47:00;3.43;;;3.13;;
2011;SDS011;1009;51.436;6.972;2023-04-24T08:49:29;4.27;;;3.87;;
2011;SDS011;1009;51.436;6.972;2023-04-24T08:51:57;3.93;;;3.53;;
2011;SDS011;1009;51.436;6.972;2023-04-24T08:54:24;4.17;;;3.70;;
2011;SDS011;1009;51.436;6.972;2023-04-24T08:56:51;3.73;;;3.33;;
2011;SDS011;1009;51.436;6.972;2023-04-24T08:59:20;6.87;;;3.30;;
2011;SDS011;1009;51.436;6.972;2023-04-24T09:01:47;3.93;;;3.00;;
2011;SDS011;1009;51.436;6.972;2023-04-24T09:04:15;3.97;;;2.87;;
2011;SDS011;1009;51.436;6.972;2023-04-24T09:06:46;4.73;;;3.13;;
2011;SDS011;1009;51.436;6.972;2023-04-24T09:09:14;5.00;;;3.17;;
2011;SDS011;1009;51.436;6.972;2023-04-24T09:11:42;3.93;;;2.70;;
2011;SDS011;1009;51.436;6.972;2023-04-24T09:14:09;3.10;;;2.07;;
2011;SDS011;1009;51.436;6.972;2023-04-24T09:16:36;3.47;;;2.13;;
2011;SDS011;1009;51.436;6.972;2023-04-24T09:19:03;4.70;;;2.37;;
2011;SDS011;1009;51.436;6.972;2023-04-24T09:21:31;2.77;;;2.57;;
2011;SDS011;1009;51.436;6.972;2023-04-24T09:24:00;4.83;;;4.30;;
2011;SDS011;1009;51.436;6.972;2023-04-24T09:26:29;6.80;;;5.77;;
2011;SDS011;1009;51.436;6.972;2023-04-24T09:28:58;11.70;;;9.30;;
2011;SDS011;1009;51.436;6.972;2023-04-24T09:31:26;9.50;;;8.50;;
2011;SDS011;1009;51.436;6.972;2023-04-24T09:33:54;12.80;;;10.07;;
2011;SDS011;1009;51.436;6.972;2023-04-24T09:36:28;11.30;;;9.30;;
2011;SDS011;1009;51.436;6.972;2023-04-24T09:38:59;11.00;;;9.90;;
2011;SDS011;1009;51.436;6.972;2023-04-24T09:41:28;8.70;;;7.70;;
2011;SDS011;1009;51.436;6.972;2023-04-24T09:43:55;8.13;;;6.97;;
2011;SDS011;1009;51.436;6.972;2023-04-24T09:46:29;7.43;;;6.73;;
2011;SDS011;1009;51.436;6.972;2023-04-24T09:48:56;7.60;;;5.40;;
2011;SDS011;1009;51.436;6.972;2023-04-24T09:51:33;7.70;;;6.20;;
2011;SDS011;1009;51.436;6.972;2023-04-24T09:54:02;6.57;;;5.97;;
2011;SDS011;1009;51.436;6.972;2023-04-24T09:56:32;6.90;;;6.20;;
2011;SDS011;1009;51.436;6.972;2023-04-24T09:59:06;9.40;;;7.00;;
2011;SDS011;1009;51.436;6.972;2023-04-24T10:01:33;11.00;;;8.30;;
2011;SDS011;1009;51.436;6.972;2023-04-24T10:04:01;10.23;;;8.10;;
2011;SDS011;1009;51.436;6.972;2023-04-24T10:06:32;10.10;;;9.00;;
2011;SDS011;1009;51.436;6.972;2023-04-24T10:09:00;9.67;;;8.67;;
2011;SDS011;1009;51.436;6.972;2023-04-24T10:11:29;14.00;;;10.00;;
2011;SDS011;1009;51.436;6.972;2023-04-24T10:13:56;12.43;;;9.40;;
2011;SDS011;1009;51.436;6.972;2023-04-24T10:16:25;11.50;;;9.73;;
2011;SDS011;1009;51.436;6.972;2023-04-24T10:18:53;13.67;;;10.00;;
2011;SDS011;1009;51.436;6.972;2023-04-24T10:21:20;13.77;;;11.13;;
2011;SDS011;1009;51.436;6.972;2023-04-24T10:23:48;12.83;;;9.80;;
2011;SDS011;1009;51.436;6.972;2023-04-24T10:26:16;13.13;;;10.00;;
2011;SDS011;1009;51.436;6.972;2023-04-24T10:28:46;18.50;;;10.13;;
2011;SDS011;1009;51.436;6.972;2023-04-24T10:31:13;12.97;;;8.50;;
2011;SDS011;1009;51.436;6.972;2023-04-24T10:33:41;14.50;;;8.50;;
2011;SDS011;1009;51.436;6.972;2023-04-24T10:36:09;12.70;;;9.33;;
2011;SDS011;1009;51.436;6.972;2023-04-24T10:38:37;14.60;;;9.70;;
2011;SDS011;1009;51.436;6.972;2023-04-24T10:41:07;19.07;;;10.10;;
2011;SDS011;1009;51.436;6.972;2023-04-24T10:43:39;13.53;;;8.23;;
2011;SDS011;1009;51.436;6.972;2023-04-24T10:46:08;14.57;;;9.30;;
2011;SDS011;1009;51.436;6.972;2023-04-24T10:48:36;14.23;;;8.90;;
2011;SDS011;1009;51.436;6.972;2023-04-24T10:51:10;15.13;;;10.23;;
2011;SDS011;1009;51.436;6.972;2023-04-24T10:53:38;13.40;;;8.53;;
2011;SDS011;1009;51.436;6.972;2023-04-24T10:56:06;19.20;;;10.23;;
2011;SDS011;1009;51.436;6.972;2023-04-24T10:58:39;20.93;;;10.50;;
2011;SDS011;1009;51.436;6.972;2023-04-24T11:01:11;10.63;;;9.47;;
2011;SDS011;1009;51.436;6.972;2023-04-24T11:03:50;16.00;;;10.40;;
2011;SDS011;1009;51.436;6.972;2023-04-24T11:06:25;19.57;;;11.40;;
2011;SDS011;1009;51.436;6.972;2023-04-24T11:08:59;24.73;;;10.43;;
2011;SDS011;1009;51.436;6.972;2023-04-24T11:11:29;18.90;;;10.03;;
2011;SDS011;1009;51.436;6.972;2023-04-24T11:14:06;14.67;;;8.33;;
2011;SDS011;1009;51.436;6.972;2023-04-24T11:16:35;12.50;;;9.30;;
2011;SDS011;1009;51.436;6.972;2023-04-24T11:19:18;22.73;;;9.73;;
2011;SDS011;1009;51.436;6.972;2023-04-24T11:21:49;14.33;;;8.57;;
2011;SDS011;1009;51.436;6.972;2023-04-24T11:24:22;15.80;;;9.23;;
2011;SDS011;1009;51.436;6.972;2023-04-24T11:26:51;18.97;;;9.83;;
2011;SDS011;1009;51.436;6.972;2023-04-24T11:29:19;22.80;;;9.07;;
2011;SDS011;1009;51.436;6.972;2023-04-24T11:31:48;21.20;;;9.53;;
2011;SDS011;1009;51.436;6.972;2023-04-24T11:34:16;16.60;;;10.00;;
2011;SDS011;1009;51.436;6.972;2023-04-24T11:36:44;14.83;;;8.60;;
2011;SDS011;1009;51.436;6.972;2023-04-24T11:39:11;14.87;;;8.50;;
2011;SDS011;1009;51.436;6.972;2023-04-24T11:41:39;18.47;;;8.20;;
2011;SDS011;1009;51.436;6.972;2023-04-24T11:44:06;20.20;;;8.23;;
2011;SDS011;1009;51.436;6.972;2023-04-24T11:46:34;15.00;;;7.67;;
2011;SDS011;1009;51.436;6.972;2023-04-24T11:49:04;14.03;;;7.50;;
2011;SDS011;1009;51.436;6.972;2023-04-24T11:51:31;11.10;;;6.60;;
2011;SDS011;1009;51.436;6.972;2023-04-24T11:53:58;10.90;;;5.83;;
2011;SDS011;1009;51.436;6.972;2023-04-24T11:56:26;10.87;;;5.53;;
2011;SDS011;1009;51.436;6.972;2023-04-24T11:58:52;7.60;;;5.40;;
2011;SDS011;1009;51.436;6.972;2023-04-24T12:01:20;14.87;;;5.37;;
2011;SDS011;1009;51.436;6.972;2023-04-24T12:03:47;12.17;;;5.40;;
2011;SDS011;1009;51.436;6.972;2023-04-24T12:06:17;9.80;;;5.43;;
2011;SDS011;1009;51.436;6.972;2023-04-24T12:08:47;10.90;;;5.73;;
2011;SDS011;1009;51.436;6.972;2023-04-24T12:11:15;10.83;;;5.93;;
2011;SDS011;1009;51.436;6.972;2023-04-24T12:13:44;11.80;;;4.80;;
2011;SDS011;1009;51.436;6.972;2023-04-24T12:16:11;7.87;;;4.40;;
2011;SDS011;1009;51.436;6.972;2023-04-24T12:18:42;14.13;;;5.00;;
2011;SDS011;1009;51.436;6.972;2023-04-24T12:21:21;6.60;;;5.13;;
2011;SDS011;1009;51.436;6.972;2023-04-24T12:23:53;8.93;;;5.63;;
2011;SDS011;1009;51.436;6.972;2023-04-24T12:26:20;10.83;;;5.43;;
2011;SDS011;1009;51.436;6.972;2023-04-24T12:28:48;12.90;;;5.80;;
2011;SDS011;1009;51.436;6.972;2023-04-24T12:31:16;8.27;;;5.13;;
2011;SDS011;1009;51.436;6.972;2023-04-24T12:33:43;10.53;;;6.40;;
2011;SDS011;1009;51.436;6.972;2023-04-24T12:36:10;7.90;;;5.53;;
2011;SDS011;1009;51.436;6.972;2023-04-24T12:38:39;11.07;;;6.60;;
2011;SDS011;1009;51.436;6.972;2023-04-24T12:41:09;11.77;;;5.00;;
2011;SDS011;1009;51.436;6.972;2023-04-24T12:43:37;7.17;;;4.47;;
2011;SDS011;1009;51.436;6.972;2023-04-24T12:46:04;6.43;;;5.00;;
2011;SDS011;1009;51.436;6.972;2023-04-24T12:48:31;7.20;;;4.13;;
2011;SDS011;1009;51.436;6.972;2023-04-24T12:50:58;7.10;;;4.30;;
2011;SDS011;1009;51.436;6.972;2023-04-24T12:53:26;7.70;;;3.70;;
2011;SDS011;1009;51.436;6.972;2023-04-24T12:55:56;10.00;;;4.40;;
2011;SDS011;1009;51.436;6.972;2023-04-24T12:58:23;4.90;;;3.03;;
2011;SDS011;1009;51.436;6.972;2023-04-24T13:00:49;7.00;;;3.00;;
2011;SDS011;1009;51.436;6.972;2023-04-24T13:03:16;3.00;;;2.50;;
2011;SDS011;1009;51.436;6.972;2023-04-24T13:05:44;7.10;;;4.30;;
2011;SDS011;1009;51.436;6.972;2023-04-24T13:08:11;4.27;;;2.70;;
2011;SDS011;1009;51.436;6.972;2023-04-24T13:10:38;7.47;;;3.10;;
2011;SDS011;1009;51.436;6.972;2023-04-24T13:13:10;6.00;;;3.17;;
2011;SDS011;1009;51.436;6.972;2023-04-24T13:15:38;3.80;;;2.40;;
2011;SDS011;1009;51.436;6.972;2023-04-24T13:18:05;4.60;;;2.20;;
2011;SDS011;1009;51.436;6.972;2023-04-24T13:20:31;4.60;;;2.57;;
2011;SDS011;1009;51.436;6.972;2023-04-24T13:23:00;3.17;;;1.90;;
2011;SDS011;1009;51.436;6.972;2023-04-24T13:25:27;10.13;;;1.97;;
2011;SDS011;1009;51.436;6.972;2023-04-24T13:27:54;2.20;;;1.53;;
2011;SDS011;1009;51.436;6.972;2023-04-24T13:30:22;5.07;;;2.57;;
2011;SDS011;1009;51.436;6.972;2023-04-24T13:32:49;4.87;;;1.97;;
2011;SDS011;1009;51.436;6.972;2023-04-24T13:35:16;5.27;;;1.67;;
2011;SDS011;1009;51.436;6.972;2023-04-24T13:37:43;4.53;;;1.80;;
2011;SDS011;1009;51.436;6.972;2023-04-24T13:40:14;8.80;;;2.40;;
2011;SDS011;1009;51.436;6.972;2023-04-24T13:42:41;6.80;;;2.10;;
2011;SDS011;1009;51.436;6.972;2023-04-24T13:45:09;4.90;;;1.97;;
2011;SDS011;1009;51.436;6.972;2023-04-24T13:47:38;5.83;;;1.43;;
2011;SDS011;1009;51.436;6.972;2023-04-24T13:50:06;4.80;;;2.10;;
2011;SDS011;1009;51.436;6.972;2023-04-24T13:52:36;5.30;;;2.50;;
2011;SDS011;1009;51.436;6.972;2023-04-24T13:55:03;2.47;;;1.80;;
2011;SDS011;1009;51.436;6.972;2023-04-24T13:57:30;7.87;;;1.63;;
2011;SDS011;1009;51.436;6.972;2023-04-24T13:59:57;2.00;;;1.80;;
2011;SDS011;1009;51.436;6.972;2023-04-24T14:02:28;7.20;;;1.80;;
2011;SDS011;1009;51.436;6.972;2023-04-24T14:04:56;2.60;;;1.57;;
2011;SDS011;1009;51.436;6.972;2023-04-24T14:07:23;4.87;;;2.07;;
2011;SDS011;1009;51.436;6.972;2023-04-24T14:09:50;6.43;;;1.87;;
2011;SDS011;1009;51.436;6.972;2023-04-24T14:12:17;3.90;;;1.70;;
2011;SDS011;1009;51.436;6.972;2023-04-24T14:14:46;9.83;;;2.13;;
2011;SDS011;1009;51.436;6.972;2023-04-24T14:17:14;3.10;;;1.47;;
2011;SDS011;1009;51.436;6.972;2023-04-24T14:19:40;5.03;;;1.60;;
2011;SDS011;1009;51.436;6.972;2023-04-24T14:22:09;5.00;;;1.50;;
2011;SDS011;1009;51.436;6.972;2023-04-24T14:24:35;2.40;;;1.80;;
2011;SDS011;1009;51.436;6.972;2023-04-24T14:27:02;6.83;;;1.73;;
2011;SDS011;1009;51.436;6.972;2023-04-24T14:29:29;3.83;;;1.50;;
2011;SDS011;1009;51.436;6.972;2023-04-24T14:31:56;4.43;;;1.77;;
2011;SDS011;1009;51.436;6.972;2023-04-24T14:34:22;1.90;;;1.63;;
2011;SDS011;1009;51.436;6.972;2023-04-24T14:36:49;2.60;;;1.30;;
2011;SDS011;1009;51.436;6.972;2023-04-24T14:39:17;3.60;;;1.67;;
2011;SDS011;1009;51.436;6.972;2023-04-24T14:41:44;2.50;;;1.73;;
2011;SDS011;1009;51.436;6.972;2023-04-24T14:44:11;2.70;;;1.87;;
2011;SDS011;1009;51.436;6.972;2023-04-24T14:46:37;1.60;;;1.47;;
2011;SDS011;1009;51.436;6.972;2023-04-24T14:49:04;3.53;;;1.60;;
2011;SDS011;1009;51.436;6.972;2023-04-24T14:51:34;6.40;;;1.83;;
2011;SDS011;1009;51.436;6.972;2023-04-24T14:54:04;5.00;;;1.77;;
2011;SDS011;1009;51.436;6.972;2023-04-24T14:56:35;3.40;;;1.90;;
2011;SDS011;1009;51.436;6.972;2023-04-24T14:59:04;3.67;;;2.23;;
2011;SDS011;1009;51.436;6.972;2023-04-24T15:01:31;4.40;;;2.13;;
2011;SDS011;1009;51.436;6.972;2023-04-24T15:03:58;5.87;;;2.70;;
2011;SDS011;1009;51.436;6.972;2023-04-24T15:06:29;2.83;;;2.13;;